createdAt,value
2018-02-17T00:02:14.645Z,35.50
2018-02-17T00:04:50.279Z,40.93
2018-02-17T00:07:24.227Z,40.47
2018-02-17T00:09:59.030Z,38.93
2018-02-17T00:12:33.337Z,40.30
2018-02-17T00:15:07.350Z,46.60
2018-02-17T00:17:42.694Z,45.33
2018-02-17T00:23:03.833Z,41.60
2018-02-17T00:25:38.242Z,39.67
2018-02-17T00:28:12.877Z,36.27
2018-02-17T00:30:47.805Z,37.90
2018-02-17T00:33:21.809Z,36.13
2018-02-17T00:35:55.539Z,39.50
2018-02-17T00:38:30.471Z,40.40
2018-02-17T00:41:04.498Z,40.63
2018-02-17T00:43:38.896Z,40.60
2018-02-17T00:46:13.516Z,36.57
2018-02-17T00:48:49.091Z,36.97
2018-02-17T00:51:22.865Z,37.07
2018-02-17T00:53:56.780Z,35.07
2018-02-17T00:56:30.797Z,33.20
2018-02-17T00:59:06.423Z,34.57
2018-02-17T01:01:43.067Z,34.17
2018-02-17T01:04:23.810Z,35.30
2018-02-17T01:07:02.258Z,34.27
2018-02-17T01:09:37.732Z,31.57
2018-02-17T01:12:12.255Z,39.00
2018-02-17T01:14:46.599Z,43.13
2018-02-17T01:17:20.788Z,44.30
2018-02-17T01:19:56.644Z,44.13
2018-02-17T01:22:31.684Z,43.20
2018-02-17T01:25:05.479Z,41.67
2018-02-17T01:27:39.207Z,42.23
2018-02-17T01:30:13.003Z,43.00
2018-02-17T01:32:47.628Z,42.77
2018-02-17T01:35:23.056Z,38.10
2018-02-17T01:37:57.777Z,44.53
2018-02-17T01:40:32.304Z,41.97
2018-02-17T01:43:06.213Z,40.53
2018-02-17T01:45:40.237Z,40.90
2018-02-17T01:48:15.033Z,44.03
2018-02-17T01:50:49.291Z,46.63
2018-02-17T01:53:23.211Z,42.77
2018-02-17T01:55:58.076Z,44.40
2018-02-17T01:58:31.724Z,44.97
2018-02-17T02:01:07.892Z,42.50
2018-02-17T02:03:42.500Z,39.90
2018-02-17T02:06:16.736Z,41.33
2018-02-17T02:08:52.149Z,42.10
2018-02-17T02:11:26.879Z,43.30
2018-02-17T02:14:01.416Z,39.63
2018-02-17T02:16:36.047Z,39.83
2018-02-17T02:19:10.645Z,36.00
2018-02-17T02:21:45.179Z,35.53
2018-02-17T02:24:19.795Z,37.20
2018-02-17T02:26:53.587Z,37.13
2018-02-17T02:29:28.648Z,35.27
2018-02-17T02:32:02.541Z,32.57
2018-02-17T02:34:36.354Z,30.70
2018-02-17T02:37:10.463Z,32.13
2018-02-17T02:39:45.192Z,31.90
2018-02-17T02:42:19.389Z,30.07
2018-02-17T02:44:54.845Z,32.87
2018-02-17T02:47:29.268Z,32.23
2018-02-17T02:50:03.172Z,31.27
2018-02-17T02:52:38.515Z,30.60
2018-02-17T02:55:12.947Z,29.10
2018-02-17T02:57:46.800Z,29.90
2018-02-17T03:00:21.365Z,30.83
2018-02-17T03:02:55.261Z,29.07
2018-02-17T03:05:29.789Z,28.27
2018-02-17T03:08:03.708Z,29.67
2018-02-17T03:10:37.912Z,28.00
2018-02-17T03:13:11.850Z,31.93
2018-02-17T03:15:46.238Z,31.30
2018-02-17T03:18:20.979Z,28.77
2018-02-17T03:20:55.827Z,30.23
2018-02-17T03:23:30.931Z,31.23
2018-02-17T03:26:07.601Z,30.53
2018-02-17T03:28:42.533Z,30.60
2018-02-17T03:31:16.746Z,30.70
2018-02-17T03:33:50.646Z,31.10
2018-02-17T03:36:24.255Z,28.50
2018-02-17T03:38:59.194Z,27.93
2018-02-17T03:41:32.799Z,27.97
2018-02-17T03:44:07.189Z,29.33
2018-02-17T03:46:44.290Z,29.70
2018-02-17T03:49:18.350Z,28.90
2018-02-17T03:51:53.351Z,28.47
2018-02-17T03:54:27.847Z,27.67
2018-02-17T03:57:02.573Z,28.17
2018-02-17T03:59:41.125Z,28.23
2018-02-17T04:02:15.826Z,26.90
2018-02-17T04:04:50.438Z,27.50
2018-02-17T04:07:24.562Z,27.97
2018-02-17T04:09:59.687Z,27.10
2018-02-17T04:12:34.505Z,27.77
2018-02-17T04:15:08.499Z,27.37
2018-02-17T04:17:42.323Z,26.67
2018-02-17T04:20:15.979Z,26.23
2018-02-17T04:22:50.448Z,26.43
2018-02-17T04:25:25.065Z,27.67
2018-02-17T04:27:59.895Z,26.60
2018-02-17T04:30:35.031Z,26.40
2018-02-17T04:33:09.651Z,27.63
2018-02-17T04:35:43.875Z,27.60
2018-02-17T04:38:17.791Z,26.80
2018-02-17T04:41:06.631Z,27.30
2018-02-17T04:43:46.167Z,26.13
2018-02-17T04:46:24.904Z,25.23
2018-02-17T04:49:04.342Z,24.67
2018-02-17T05:05:30.565Z,23.37
2018-02-17T05:08:19.587Z,23.07
2018-02-17T05:10:54.358Z,22.63
2018-02-17T05:13:28.324Z,23.50
2018-02-17T05:16:19.861Z,20.87
2018-02-17T05:19:07.581Z,21.83
2018-02-17T05:21:51.233Z,21.17
2018-02-17T05:24:31.289Z,20.53
2018-02-17T05:27:10.400Z,20.97
2018-02-17T05:29:59.058Z,21.57
2018-02-17T05:32:38.493Z,21.73
2018-02-17T05:35:19.072Z,19.90
2018-02-17T05:37:53.050Z,19.83
2018-02-17T05:40:28.908Z,22.07
2018-02-17T05:43:03.735Z,21.23
2018-02-17T05:45:39.902Z,22.27
2018-02-17T05:48:13.794Z,20.33
2018-02-17T05:50:47.612Z,20.83
2018-02-17T05:53:21.224Z,19.40
2018-02-17T05:55:56.127Z,19.17
2018-02-17T05:58:30.767Z,20.10
2018-02-17T06:01:04.886Z,19.77
2018-02-17T06:03:38.801Z,19.07
2018-02-17T06:06:13.196Z,20.07
2018-02-17T06:08:47.614Z,20.50
2018-02-17T06:11:22.163Z,20.47
2018-02-17T06:13:56.288Z,20.23
2018-02-17T06:16:29.972Z,19.57
2018-02-17T06:19:04.387Z,18.17
2018-02-17T06:21:38.694Z,19.93
2018-02-17T06:24:12.721Z,20.17
2018-02-17T06:26:46.803Z,19.77
2018-02-17T06:29:20.496Z,19.60
2018-02-17T06:31:55.247Z,19.20
2018-02-17T06:34:30.272Z,19.63
2018-02-17T06:37:04.890Z,18.47
2018-02-17T06:39:39.614Z,18.27
2018-02-17T06:42:13.323Z,18.50
2018-02-17T06:44:47.535Z,18.00
2018-02-17T06:47:21.434Z,18.07
2018-02-17T06:49:56.247Z,18.50
2018-02-17T06:52:30.174Z,18.97
2018-02-17T06:55:04.697Z,17.70
2018-02-17T06:57:38.711Z,17.80
2018-02-17T07:00:12.511Z,16.73
2018-02-17T07:02:47.239Z,18.13
2018-02-17T07:05:20.925Z,17.80
2018-02-17T07:07:56.554Z,17.47
2018-02-17T07:10:30.491Z,17.40
2018-02-17T07:13:05.628Z,16.77
2018-02-17T07:15:39.535Z,17.67
2018-02-17T07:18:14.051Z,18.50
2018-02-17T07:20:48.278Z,18.53
2018-02-17T07:23:22.489Z,16.73
2018-02-17T07:25:57.133Z,17.60
2018-02-17T07:28:31.731Z,16.00
2018-02-17T07:31:05.695Z,16.17
2018-02-17T07:33:39.547Z,17.00
2018-02-17T07:36:14.369Z,16.43
2018-02-17T07:38:48.399Z,14.93
2018-02-17T07:41:22.207Z,15.27
2018-02-17T07:43:56.612Z,15.50
2018-02-17T07:46:31.133Z,14.73
2018-02-17T07:49:06.161Z,14.27
2018-02-17T07:51:40.010Z,14.93
2018-02-17T07:54:15.020Z,14.20
2018-02-17T07:56:49.324Z,14.37
2018-02-17T07:59:23.547Z,14.70
2018-02-17T08:02:03.984Z,14.23
2018-02-17T08:04:45.269Z,14.40
2018-02-17T08:07:19.692Z,13.53
2018-02-17T08:09:54.527Z,13.27
2018-02-17T08:12:29.044Z,13.67
2018-02-17T08:15:02.841Z,13.67
2018-02-17T08:17:37.778Z,14.37
2018-02-17T08:20:11.601Z,14.17
2018-02-17T08:22:46.208Z,14.73
2018-02-17T08:25:20.120Z,14.50
2018-02-17T08:27:54.826Z,14.03
2018-02-17T08:30:29.463Z,13.77
2018-02-17T08:33:04.120Z,14.20
2018-02-17T08:35:38.005Z,12.63
2018-02-17T08:38:11.710Z,13.93
2018-02-17T08:40:46.731Z,13.83
2018-02-17T08:43:20.643Z,13.77
2018-02-17T08:45:55.153Z,13.50
2018-02-17T08:48:28.858Z,14.00
2018-02-17T08:51:03.308Z,13.40
2018-02-17T08:53:38.404Z,14.40
2018-02-17T08:56:12.964Z,14.30
2018-02-17T08:58:47.152Z,13.80
2018-02-17T09:01:21.569Z,13.40
2018-02-17T09:03:55.893Z,15.17
2018-02-17T09:06:29.606Z,13.50
2018-02-17T09:09:04.408Z,13.90
2018-02-17T09:11:38.244Z,13.20
2018-02-17T09:14:12.133Z,13.77
2018-02-17T09:16:46.343Z,13.80
2018-02-17T09:19:20.863Z,13.00
2018-02-17T09:21:56.100Z,14.43
2018-02-17T09:24:29.906Z,13.80
2018-02-17T09:27:03.918Z,14.10
2018-02-17T09:29:37.833Z,14.20
2018-02-17T09:32:12.572Z,13.57
2018-02-17T09:34:47.192Z,13.40
2018-02-17T09:37:21.774Z,13.63
2018-02-17T09:39:56.328Z,13.67
2018-02-17T09:42:30.848Z,14.00
2018-02-17T09:45:04.753Z,13.90
2018-02-17T09:47:38.837Z,15.07
2018-02-17T09:50:13.516Z,14.60
2018-02-17T09:52:47.702Z,14.10
2018-02-17T09:55:22.331Z,14.30
2018-02-17T09:57:57.784Z,14.97
2018-02-17T10:00:31.971Z,13.67
2018-02-17T10:03:07.536Z,14.60
2018-02-17T10:05:42.328Z,13.40
2018-02-17T10:08:16.594Z,12.90
2018-02-17T10:10:50.280Z,13.03
2018-02-17T10:13:25.015Z,13.00
2018-02-17T10:15:58.908Z,12.50
2018-02-17T10:18:33.019Z,12.90
2018-02-17T10:21:07.986Z,12.33
2018-02-17T10:23:42.571Z,13.13
2018-02-17T10:26:17.111Z,13.33
2018-02-17T10:28:50.816Z,12.87
2018-02-17T10:31:25.513Z,13.00
2018-02-17T10:33:59.332Z,12.70
2018-02-17T10:36:33.128Z,12.30
2018-02-17T10:39:09.085Z,12.23
2018-02-17T10:41:44.318Z,11.50
2018-02-17T10:44:19.563Z,11.90
2018-02-17T10:46:53.395Z,11.87
2018-02-17T10:49:27.780Z,12.07
2018-02-17T10:52:01.499Z,12.03
2018-02-17T10:54:36.837Z,12.83
2018-02-17T10:57:11.350Z,11.63
2018-02-17T10:59:48.439Z,11.60
2018-02-17T11:02:29.815Z,10.10
2018-02-17T11:05:05.248Z,10.30
2018-02-17T11:07:39.055Z,8.83
2018-02-17T11:10:15.119Z,8.83
2018-02-17T11:12:50.779Z,9.37
2018-02-17T11:15:25.900Z,11.40
2018-02-17T11:17:59.912Z,10.73
2018-02-17T11:20:35.475Z,11.07
2018-02-17T11:23:10.104Z,11.57
2018-02-17T11:25:43.899Z,12.10
2018-02-17T11:28:18.638Z,12.70
2018-02-17T11:30:52.858Z,13.53
2018-02-17T11:33:28.162Z,16.00
2018-02-17T11:36:02.071Z,14.77
2018-02-17T11:38:36.396Z,15.20
2018-02-17T11:41:10.128Z,16.83
2018-02-17T11:43:44.515Z,15.23
2018-02-17T11:46:19.443Z,16.13
2018-02-17T11:48:53.240Z,16.10
2018-02-17T11:51:27.997Z,17.10
2018-02-17T11:54:02.619Z,16.20
2018-02-17T11:56:37.325Z,17.00
2018-02-17T11:59:13.173Z,17.93
2018-02-17T12:01:47.890Z,18.50
2018-02-17T12:04:22.340Z,16.57
2018-02-17T12:06:56.850Z,17.13
2018-02-17T12:09:30.851Z,17.80
2018-02-17T12:12:06.926Z,16.37
2018-02-17T12:14:40.820Z,16.27
2018-02-17T12:17:16.360Z,16.47
2018-02-17T12:19:51.322Z,16.40
2018-02-17T12:22:25.815Z,15.60
2018-02-17T12:24:59.708Z,14.63
2018-02-17T12:27:34.243Z,14.60
2018-02-17T12:30:09.070Z,15.60
2018-02-17T12:32:42.954Z,14.60
2018-02-17T12:35:17.615Z,13.43
2018-02-17T12:37:52.125Z,14.87
2018-02-17T12:40:26.753Z,15.67
2018-02-17T12:43:00.472Z,15.40
2018-02-17T12:45:35.545Z,15.00
2018-02-17T12:48:10.127Z,14.57
2018-02-17T12:50:44.112Z,14.73
2018-02-17T12:53:18.743Z,14.90
2018-02-17T12:55:52.540Z,15.67
2018-02-17T12:58:27.583Z,14.37
2018-02-17T13:01:01.484Z,15.80
2018-02-17T13:03:36.211Z,15.33
2018-02-17T13:06:10.747Z,15.60
2018-02-17T13:08:46.410Z,15.97
2018-02-17T13:11:20.967Z,15.50
2018-02-17T13:13:56.164Z,16.70
2018-02-17T13:16:30.071Z,15.23
2018-02-17T13:19:03.946Z,16.47
2018-02-17T13:21:38.898Z,16.37
2018-02-17T13:24:14.933Z,16.00
2018-02-17T13:26:49.575Z,16.83
2018-02-17T13:29:24.182Z,17.73
2018-02-17T13:31:58.711Z,17.50
2018-02-17T13:34:33.220Z,17.17
2018-02-17T13:37:07.953Z,16.73
2018-02-17T13:39:42.396Z,15.87
2018-02-17T13:42:16.205Z,15.97
2018-02-17T13:44:50.087Z,16.50
2018-02-17T13:47:25.139Z,15.77
2018-02-17T13:50:00.368Z,15.97
2018-02-17T13:52:34.180Z,16.23
2018-02-17T13:55:08.271Z,18.17
2018-02-17T13:57:42.816Z,18.80
2018-02-17T14:00:16.916Z,18.27
2018-02-17T14:02:51.112Z,17.83
2018-02-17T14:05:26.492Z,17.63
2018-02-17T14:08:00.180Z,17.73
2018-02-17T14:10:34.056Z,18.13
2018-02-17T14:13:08.684Z,20.77
2018-02-17T14:15:43.965Z,24.73
2018-02-17T14:18:29.024Z,24.83
2018-02-17T14:21:02.834Z,30.73
2018-02-17T14:23:37.327Z,25.63
2018-02-17T14:26:11.743Z,20.80
2018-02-17T14:28:46.892Z,24.77
2018-02-17T14:31:20.798Z,24.87
2018-02-17T14:33:54.595Z,21.93
2018-02-17T14:36:29.223Z,21.60
2018-02-17T14:39:03.244Z,21.07
2018-02-17T14:41:37.148Z,20.67
2018-02-17T14:44:11.594Z,19.87
2018-02-17T14:46:46.069Z,19.63
2018-02-17T14:49:19.884Z,22.80
2018-02-17T14:51:55.547Z,22.00
2018-02-17T14:54:29.452Z,20.77
2018-02-17T14:57:04.158Z,19.57
2018-02-17T14:59:38.900Z,19.17
2018-02-17T15:02:12.694Z,18.60
2018-02-17T15:04:46.815Z,20.63
2018-02-17T15:07:20.511Z,21.30
2018-02-17T15:09:54.434Z,24.00
2018-02-17T15:12:28.552Z,17.97
2018-02-17T15:15:02.323Z,16.47
2018-02-17T15:17:36.444Z,16.23
2018-02-17T15:20:11.076Z,16.27
2018-02-17T15:22:46.223Z,18.77
2018-02-17T15:25:20.620Z,24.20
2018-02-17T15:27:55.775Z,22.27
2018-02-17T15:30:29.570Z,22.37
2018-02-17T15:33:03.543Z,19.90
2018-02-17T15:35:38.407Z,18.77
2018-02-17T15:38:12.316Z,22.90
2018-02-17T15:40:47.131Z,24.10
2018-02-17T15:43:21.881Z,21.87
2018-02-17T15:45:56.614Z,22.77
2018-02-17T15:48:31.413Z,24.47
2018-02-17T15:51:07.564Z,23.40
2018-02-17T15:53:43.742Z,20.83
2018-02-17T15:56:18.562Z,20.30
2018-02-17T15:58:52.585Z,20.80
2018-02-17T16:01:29.161Z,19.57
2018-02-17T16:04:03.054Z,21.30
2018-02-17T16:06:37.108Z,19.50
2018-02-17T16:09:11.691Z,20.30
2018-02-17T16:11:46.533Z,20.43
2018-02-17T16:14:20.424Z,20.87
2018-02-17T16:16:55.265Z,16.50
2018-02-17T16:19:28.879Z,15.53
2018-02-17T16:22:03.771Z,16.00
2018-02-17T16:24:38.427Z,13.60
2018-02-17T16:27:13.431Z,14.83
2018-02-17T16:29:48.184Z,14.70
2018-02-17T16:32:21.942Z,14.43
2018-02-17T16:34:56.899Z,14.80
2018-02-17T16:37:30.602Z,14.70
2018-02-17T16:40:04.507Z,15.00
2018-02-17T16:42:38.532Z,15.47
2018-02-17T16:45:13.344Z,15.67
2018-02-17T16:47:47.967Z,16.93
2018-02-17T16:50:21.584Z,18.03
2018-02-17T16:52:55.788Z,16.07
2018-02-17T16:55:29.895Z,15.53
2018-02-17T16:58:04.222Z,15.73
2018-02-17T17:00:38.551Z,13.43
2018-02-17T17:03:12.647Z,13.13
2018-02-17T17:05:47.368Z,14.33
2018-02-17T17:08:22.099Z,14.30
2018-02-17T17:10:57.093Z,15.00
2018-02-17T17:13:31.922Z,14.70
2018-02-17T17:16:06.692Z,15.47
2018-02-17T17:18:40.697Z,15.53
2018-02-17T17:21:15.205Z,15.50
2018-02-17T17:23:49.719Z,15.23
2018-02-17T17:26:23.993Z,15.50
2018-02-17T17:28:57.649Z,16.47
2018-02-17T17:31:31.871Z,21.50
2018-02-17T17:34:07.940Z,21.90
2018-02-17T17:36:46.695Z,21.07
2018-02-17T17:39:20.740Z,19.70
2018-02-17T17:41:56.296Z,16.83
2018-02-17T17:44:30.196Z,15.93
2018-02-17T17:47:05.657Z,20.77
2018-02-17T17:49:40.167Z,21.73
2018-02-17T17:52:14.278Z,21.87
2018-02-17T17:54:49.040Z,25.57
2018-02-17T17:57:22.899Z,26.30
2018-02-17T17:59:56.716Z,30.93
2018-02-17T18:02:31.127Z,25.43
2018-02-17T18:05:05.349Z,28.53
2018-02-17T18:07:39.176Z,28.20
2018-02-17T18:10:13.168Z,35.87
2018-02-17T18:12:47.577Z,30.20
2018-02-17T18:15:22.536Z,27.13
2018-02-17T18:17:57.128Z,21.83
2018-02-17T18:20:31.765Z,21.67
2018-02-17T18:23:06.683Z,20.63
2018-02-17T18:25:40.517Z,17.97
2018-02-17T18:28:15.245Z,19.60
2018-02-17T18:30:49.336Z,20.57
2018-02-17T18:33:23.372Z,27.90
2018-02-17T18:35:57.661Z,22.83
2018-02-17T18:38:32.485Z,23.90
2018-02-17T18:41:06.502Z,29.97
2018-02-17T18:43:40.536Z,27.93
2018-02-17T18:46:16.703Z,22.03
2018-02-17T18:48:51.920Z,20.23
2018-02-17T18:51:27.273Z,24.93
2018-02-17T18:54:01.148Z,23.13
2018-02-17T18:56:34.770Z,24.67
2018-02-17T18:59:09.507Z,23.03
2018-02-17T19:01:45.806Z,24.50
2018-02-17T19:04:21.104Z,25.40
2018-02-17T19:06:55.636Z,24.60
2018-02-17T19:09:30.367Z,22.03
2018-02-17T19:12:05.994Z,21.60
2018-02-17T19:14:41.872Z,20.07
2018-02-17T19:17:18.257Z,20.07
2018-02-17T19:19:52.610Z,21.70
2018-02-17T19:22:29.325Z,20.33
2018-02-17T19:25:05.335Z,21.90
2018-02-17T19:27:41.081Z,20.87
2018-02-17T19:30:18.678Z,21.27
2018-02-17T19:32:52.481Z,21.67
2018-02-17T19:35:27.743Z,19.80
2018-02-17T19:38:01.905Z,21.20
2018-02-17T19:40:38.732Z,19.53
2018-02-17T19:43:17.431Z,21.27
2018-02-17T19:45:51.347Z,22.20
2018-02-17T19:48:26.895Z,20.87
2018-02-17T19:51:01.448Z,19.17
2018-02-17T19:53:36.761Z,18.87
2018-02-17T19:56:10.646Z,18.97
2018-02-17T19:58:45.902Z,20.57
2018-02-17T20:01:19.895Z,23.77
2018-02-17T20:03:55.068Z,21.13
2018-02-17T20:06:29.160Z,21.67
2018-02-17T20:09:04.901Z,21.97
2018-02-17T20:11:40.035Z,25.40
2018-02-17T20:14:14.567Z,23.53
2018-02-17T20:16:49.687Z,25.40
2018-02-17T20:19:23.500Z,26.67
2018-02-17T20:21:58.043Z,28.20
2018-02-17T20:24:31.748Z,23.87
2018-02-17T20:27:06.567Z,23.77
2018-02-17T20:29:41.067Z,26.13
2018-02-17T20:32:15.304Z,26.40
2018-02-17T20:34:49.202Z,25.17
2018-02-17T20:37:23.410Z,24.70
2018-02-17T20:39:59.371Z,27.57
2018-02-17T20:42:33.610Z,29.90
2018-02-17T20:45:09.267Z,29.53
2018-02-17T20:47:44.941Z,29.03
2018-02-17T20:50:20.425Z,36.63
2018-02-17T20:52:55.136Z,26.00
2018-02-17T20:55:29.712Z,27.50
2018-02-17T20:58:05.185Z,28.57
2018-02-17T21:00:40.573Z,27.27
2018-02-17T21:03:14.479Z,29.83
2018-02-17T21:05:50.336Z,28.97
2018-02-17T21:08:26.299Z,27.00
2018-02-17T21:11:01.015Z,32.10
2018-02-17T21:13:35.941Z,34.13
2018-02-17T21:16:11.180Z,29.53
2018-02-17T21:18:46.044Z,31.27
2018-02-17T21:21:21.644Z,31.77
2018-02-17T21:23:58.943Z,28.73
2018-02-17T21:26:32.739Z,29.37
2018-02-17T21:29:09.627Z,29.43
2018-02-17T21:31:47.577Z,29.70
2018-02-17T21:34:22.238Z,28.17
2018-02-17T21:36:58.015Z,29.77
2018-02-17T21:39:33.628Z,28.87
2018-02-17T21:42:07.956Z,34.20
2018-02-17T21:44:43.515Z,30.33
2018-02-17T21:47:17.717Z,28.97
2018-02-17T21:49:52.136Z,33.47
2018-02-17T21:52:27.585Z,31.37
2018-02-17T21:55:01.288Z,29.57
2018-02-17T21:57:35.384Z,30.97
2018-02-17T22:00:10.911Z,30.50
2018-02-17T22:02:46.682Z,29.80
2018-02-17T22:05:22.319Z,29.90
2018-02-17T22:07:57.180Z,30.23
2018-02-17T22:10:31.271Z,31.23
2018-02-17T22:13:05.880Z,32.37
2018-02-17T22:15:40.308Z,29.93
2018-02-17T22:18:14.188Z,30.37
2018-02-17T22:20:50.400Z,29.40
2018-02-17T22:23:26.049Z,30.80
2018-02-17T22:26:00.038Z,33.77
2018-02-17T22:28:33.961Z,34.67
2018-02-17T22:31:08.264Z,32.70
2018-02-17T22:33:42.266Z,31.30
2018-02-17T22:36:17.203Z,30.53
2018-02-17T22:38:50.993Z,31.67
2018-02-17T22:41:25.636Z,34.17
2018-02-17T22:43:59.655Z,32.00
2018-02-17T22:46:34.391Z,33.97
2018-02-17T22:49:08.191Z,32.33
2018-02-17T22:51:42.064Z,32.10
2018-02-17T22:54:16.800Z,32.10
2018-02-17T22:56:51.534Z,31.90
2018-02-17T22:59:26.468Z,32.23
2018-02-17T23:02:01.281Z,32.93
2018-02-17T23:04:35.804Z,32.33
2018-02-17T23:07:10.436Z,33.67
2018-02-17T23:09:45.689Z,32.00
2018-02-17T23:12:20.507Z,32.73
2018-02-17T23:14:55.571Z,32.10
2018-02-17T23:17:30.363Z,34.70
2018-02-17T23:20:04.401Z,32.83
2018-02-17T23:22:38.376Z,32.87
2018-02-17T23:25:13.099Z,34.10
2018-02-17T23:27:48.059Z,34.83
2018-02-17T23:30:22.759Z,33.80
2018-02-17T23:32:57.083Z,33.37
2018-02-17T23:35:31.397Z,33.03
2018-02-17T23:38:06.439Z,33.97
2018-02-17T23:40:41.261Z,33.77
2018-02-17T23:43:15.681Z,32.23
2018-02-17T23:45:49.688Z,34.93
2018-02-17T23:48:24.232Z,34.03
2018-02-17T23:50:59.241Z,32.30
2018-02-17T23:53:33.051Z,32.07
2018-02-17T23:56:08.086Z,31.83
2018-02-17T23:58:42.101Z,33.80
